Gmunden, Austria
Current Conditions -  °F | °C
As of 4:20 AM on Tuesday 21 Oct 2014 (Local Time) from LOWL Reporting Station
Moderate Rain Moderate Rain  
Wind Chill: 55°   Ceiling: 6000
Heat Index: 55°   Visibility: 5mi
Dew Point: 54°   Wind: 12mph
Humidity: 94%   Direction: 230°SW
Pressure: 29.94"   Gusts: NA
Location:  47.92°N, 13.81°E
Report Text: LOWL 210220Z 23010KT 8000 RA FEW025 SCT045 BKN060 13/12 Q1014 TEMPO -RA
Loading
Personal Weather Stations






























Interactive Weather Map
Tropical Storm Tracking
New forecast layout! Learn more

10-Day Weather Forecast

Advertisements
Track Severe Weather on mobile